Clermont, Kentucky
Current Conditions -  °F | °C
As of 5:29 AM on Saturday 22 Nov 2014 (Local Time) from KFTK Reporting Station
Unknown Precip Unknown Precip  
Wind Chill: 39°   Ceiling: 7000
Heat Index: 43°   Visibility: 10mi
Dew Point: 30°   Wind: 7mph
Humidity: 61%   Direction: 200°SSW
Pressure: 30.29"   Gusts: NA
Location:  37.93°N, 85.65°W
Report Text: KFTK 221029Z AUTO 20006KT 10SM UP BKN070 06/M01 A3029 RMK AO2
Loading
Personal Weather Stations






























Interactive Weather Map New forecast layout! Learn more

10-Day Weather Forecast

Advertisements
Track Severe Weather on mobile